Time;durP1;ratioP1;P1;durP2;ratioP2;P2;SDS_P1;SDS_P2;PMS_P1;PMS_P2;Temp;Humidity;BMP_temperature;BMP_pressure;BME280_temperature;BME280_humidity;BME280_pressure;Samples;Min_cycle;Max_cycle;Signal;HPM_P1;HPM_P2
2021/04/26 00:00:29;;;;;;;6.37;2.00;;;;;;;;;;5031627;28;37809;-76
2021/04/26 00:02:56;;;;;;;4.60;1.70;;;;;;;;;;5034823;28;38885;-77
2021/04/26 00:05:22;;;;;;;6.57;1.70;;;;;;;;;;5030110;28;37238;-76
2021/04/26 00:07:49;;;;;;;8.70;2.73;;;;;;;;;;5036132;28;37782;-76
2021/04/26 00:10:16;;;;;;;10.47;2.37;;;;;;;;;;5031154;28;39047;-76
2021/04/26 00:12:43;;;;;;;5.17;1.83;;;;;;;;;;5051851;28;37872;-75
2021/04/26 00:15:11;;;;;;;13.13;2.90;;;;;;;;;;5027173;28;38192;-77
2021/04/26 00:17:38;;;;;;;8.03;2.20;;;;;;;;;;5029165;28;39410;-77
2021/04/26 00:20:08;;;;;;;8.30;2.17;;;;;;;;;;5022987;28;39302;-76
2021/04/26 00:22:35;;;;;;;8.87;2.00;;;;;;;;;;5023162;28;41239;-76
2021/04/26 00:25:01;;;;;;;9.63;1.80;;;;;;;;;;5019768;28;35086;-76
2021/04/26 00:27:27;;;;;;;3.97;1.70;;;;;;;;;;5017266;28;47291;-76
2021/04/26 00:29:54;;;;;;;9.37;2.30;;;;;;;;;;5022335;28;39041;-76
2021/04/26 00:32:20;;;;;;;7.23;2.10;;;;;;;;;;5025720;28;38358;-77
2021/04/26 00:34:47;;;;;;;8.07;2.20;;;;;;;;;;5021270;28;36612;-76
2021/04/26 00:37:13;;;;;;;9.20;2.37;;;;;;;;;;5014989;28;40836;-76
2021/04/26 00:39:39;;;;;;;7.00;2.27;;;;;;;;;;5024305;28;39877;-76
2021/04/26 00:42:06;;;;;;;10.83;2.70;;;;;;;;;;5023354;28;39991;-76
2021/04/26 00:44:32;;;;;;;6.20;2.20;;;;;;;;;;5019603;28;37080;-76
2021/04/26 00:46:58;;;;;;;7.50;2.80;;;;;;;;;;5019549;28;39406;-76
2021/04/26 00:49:25;;;;;;;8.77;2.20;;;;;;;;;;5018197;28;40273;-76
2021/04/26 00:51:51;;;;;;;6.60;2.10;;;;;;;;;;5018252;28;38824;-76
2021/04/26 00:54:18;;;;;;;6.43;1.90;;;;;;;;;;5019544;28;37574;-76
2021/04/26 00:56:44;;;;;;;10.30;2.30;;;;;;;;;;5019938;28;38913;-76
2021/04/26 00:59:11;;;;;;;8.97;2.07;;;;;;;;;;5020316;28;38819;-76
2021/04/26 01:01:37;;;;;;;11.80;2.47;;;;;;;;;;5020876;28;41893;-76
2021/04/26 01:04:04;;;;;;;8.87;2.73;;;;;;;;;;5015883;28;38138;-76
2021/04/26 01:06:30;;;;;;;8.97;2.60;;;;;;;;;;5019879;28;38625;-76
2021/04/26 01:08:57;;;;;;;5.23;1.90;;;;;;;;;;5019634;28;38719;-76
2021/04/26 01:11:28;;;;;;;6.03;2.20;;;;;;;;;;5019053;28;39607;-76
2021/04/26 01:13:54;;;;;;;9.77;2.30;;;;;;;;;;5017118;28;38567;-76
2021/04/26 01:16:34;;;;;;;7.13;2.47;;;;;;;;;;5020229;28;38758;-76
2021/04/26 01:19:11;;;;;;;8.57;2.07;;;;;;;;;;5023701;28;39286;-76
2021/04/26 01:21:56;;;;;;;15.53;4.60;;;;;;;;;;5013268;28;47172;-76
2021/04/26 01:24:23;;;;;;;9.37;2.23;;;;;;;;;;5019658;28;37702;-75
2021/04/26 01:26:49;;;;;;;11.13;3.03;;;;;;;;;;5039243;28;39404;-75
2021/04/26 01:29:24;;;;;;;5.23;2.07;;;;;;;;;;5021871;28;39601;-75
2021/04/26 01:31:56;;;;;;;12.33;2.43;;;;;;;;;;5018091;28;39394;-76
2021/04/26 01:34:27;;;;;;;9.20;2.50;;;;;;;;;;5029381;28;37665;-76
2021/04/26 01:36:54;;;;;;;8.17;3.53;;;;;;;;;;5020317;28;39494;-76
2021/04/26 01:39:22;;;;;;;9.47;2.37;;;;;;;;;;5025213;28;38993;-75
2021/04/26 01:41:49;;;;;;;8.47;2.17;;;;;;;;;;5018975;28;38592;-76
2021/04/26 01:44:16;;;;;;;8.70;2.53;;;;;;;;;;5023055;28;36943;-76
2021/04/26 01:46:43;;;;;;;8.30;2.53;;;;;;;;;;5017763;28;39467;-76
2021/04/26 01:49:10;;;;;;;6.60;2.40;;;;;;;;;;5025652;28;39007;-76
2021/04/26 01:51:37;;;;;;;6.90;3.33;;;;;;;;;;5014475;28;38014;-76
2021/04/26 01:54:04;;;;;;;8.70;2.47;;;;;;;;;;5015697;28;37618;-76
2021/04/26 01:56:34;;;;;;;3.87;2.33;;;;;;;;;;5010343;28;38878;-76
2021/04/26 01:59:01;;;;;;;5.83;2.20;;;;;;;;;;5019669;28;38844;-76
2021/04/26 02:01:28;;;;;;;5.70;2.53;;;;;;;;;;5015423;28;37587;-76
2021/04/26 02:03:59;;;;;;;6.43;2.57;;;;;;;;;;5023478;28;37542;-76
2021/04/26 02:06:26;;;;;;;5.67;2.73;;;;;;;;;;5022989;28;41747;-76
2021/04/26 02:08:53;;;;;;;11.87;3.03;;;;;;;;;;5018449;28;40679;-76
2021/04/26 02:11:20;;;;;;;11.63;3.47;;;;;;;;;;5023039;28;39314;-76
2021/04/26 02:13:47;;;;;;;11.17;3.30;;;;;;;;;;5023600;28;37585;-76
2021/04/26 02:16:13;;;;;;;10.10;3.10;;;;;;;;;;5036726;28;39656;-76
2021/04/26 02:18:40;;;;;;;11.43;3.50;;;;;;;;;;5021262;28;38796;-76
2021/04/26 02:21:06;;;;;;;9.00;3.07;;;;;;;;;;5015314;28;41430;-76
2021/04/26 02:23:33;;;;;;;9.67;2.90;;;;;;;;;;5023776;28;36784;-76
2021/04/26 02:25:59;;;;;;;17.53;3.50;;;;;;;;;;5016708;28;38479;-76
2021/04/26 02:28:25;;;;;;;10.40;3.83;;;;;;;;;;5015193;28;38246;-76
2021/04/26 02:30:56;;;;;;;10.03;3.23;;;;;;;;;;5020527;28;39973;-76
2021/04/26 02:33:30;;;;;;;11.23;2.80;;;;;;;;;;5025593;28;37014;-76
2021/04/26 02:35:57;;;;;;;12.43;3.37;;;;;;;;;;5023049;28;39148;-76
2021/04/26 02:38:26;;;;;;;10.80;2.40;;;;;;;;;;5027007;28;40525;-76
2021/04/26 02:40:56;;;;;;;12.13;3.13;;;;;;;;;;5025416;28;39109;-76
2021/04/26 02:43:24;;;;;;;12.30;3.27;;;;;;;;;;5018272;28;38390;-76
2021/04/26 02:45:53;;;;;;;11.60;2.90;;;;;;;;;;5019906;28;39626;-76
2021/04/26 02:48:20;;;;;;;8.90;3.20;;;;;;;;;;5023550;28;39368;-76
2021/04/26 02:50:47;;;;;;;9.53;3.60;;;;;;;;;;5018635;28;39330;-76
2021/04/26 02:53:15;;;;;;;12.20;3.00;;;;;;;;;;5026037;28;36887;-76
2021/04/26 02:55:44;;;;;;;10.83;2.80;;;;;;;;;;5022580;28;38656;-76
2021/04/26 02:58:11;;;;;;;9.87;3.27;;;;;;;;;;5019034;28;39561;-76
2021/04/26 03:00:37;;;;;;;12.07;3.13;;;;;;;;;;5021664;28;37458;-77
2021/04/26 03:03:04;;;;;;;11.80;3.33;;;;;;;;;;5028348;28;36807;-76
2021/04/26 03:05:30;;;;;;;11.10;3.40;;;;;;;;;;5020375;28;39080;-76
2021/04/26 03:07:57;;;;;;;11.10;2.83;;;;;;;;;;5024626;28;38905;-77
2021/04/26 03:10:24;;;;;;;9.07;3.27;;;;;;;;;;5022201;28;39028;-76
2021/04/26 03:12:51;;;;;;;10.70;3.20;;;;;;;;;;5024778;28;39022;-76
2021/04/26 03:15:19;;;;;;;10.33;3.60;;;;;;;;;;5020740;28;40715;-76
2021/04/26 03:17:46;;;;;;;12.93;3.33;;;;;;;;;;5022680;28;38750;-76
2021/04/26 03:20:13;;;;;;;10.93;3.43;;;;;;;;;;5020016;28;38564;-76
2021/04/26 03:22:40;;;;;;;9.50;3.23;;;;;;;;;;5019097;28;37599;-76
2021/04/26 03:25:07;;;;;;;7.17;2.83;;;;;;;;;;5020831;28;40577;-76
2021/04/26 03:27:35;;;;;;;7.03;2.60;;;;;;;;;;5025510;28;39003;-77
2021/04/26 03:30:02;;;;;;;6.93;3.53;;;;;;;;;;5027146;28;38884;-76
2021/04/26 03:32:28;;;;;;;13.30;4.10;;;;;;;;;;5037753;28;46986;-76
2021/04/26 03:34:55;;;;;;;8.13;3.37;;;;;;;;;;5022276;28;39790;-76
2021/04/26 03:37:22;;;;;;;7.77;3.17;;;;;;;;;;5024383;28;39818;-76
2021/04/26 03:39:48;;;;;;;13.83;3.80;;;;;;;;;;5023559;28;40512;-76
2021/04/26 03:42:16;;;;;;;9.27;3.17;;;;;;;;;;5018761;28;36840;-76
2021/04/26 03:44:46;;;;;;;6.87;3.07;;;;;;;;;;5020904;28;38667;-76
2021/04/26 03:47:13;;;;;;;9.33;4.50;;;;;;;;;;5033335;28;38088;-76
2021/04/26 03:49:39;;;;;;;7.57;3.60;;;;;;;;;;5031600;28;39961;-76
2021/04/26 03:52:07;;;;;;;9.87;3.10;;;;;;;;;;5024639;28;37026;-76
2021/04/26 03:54:34;;;;;;;11.60;3.40;;;;;;;;;;5035904;28;40604;-76
2021/04/26 03:57:00;;;;;;;7.47;3.70;;;;;;;;;;5025174;28;39738;-76
2021/04/26 03:59:27;;;;;;;9.80;3.60;;;;;;;;;;5019309;28;47206;-76
2021/04/26 04:01:54;;;;;;;12.73;3.43;;;;;;;;;;5018606;28;36490;-76
2021/04/26 04:04:21;;;;;;;11.20;3.47;;;;;;;;;;5011755;28;40610;-76
2021/04/26 04:06:47;;;;;;;9.73;3.37;;;;;;;;;;5017380;28;39432;-77
2021/04/26 04:09:15;;;;;;;8.57;3.23;;;;;;;;;;5034866;28;38853;-76
2021/04/26 04:11:41;;;;;;;10.40;2.83;;;;;;;;;;5019269;28;36289;-75
2021/04/26 04:14:07;;;;;;;9.40;3.70;;;;;;;;;;5016095;28;39425;-76
2021/04/26 04:16:34;;;;;;;12.57;3.60;;;;;;;;;;5020916;28;39219;-76
2021/04/26 04:19:01;;;;;;;6.43;3.30;;;;;;;;;;5020968;28;40173;-76
2021/04/26 04:21:27;;;;;;;9.17;3.27;;;;;;;;;;5015280;28;46859;-76
2021/04/26 04:23:53;;;;;;;9.57;3.67;;;;;;;;;;5020054;28;39843;-76
2021/04/26 04:26:20;;;;;;;10.67;3.50;;;;;;;;;;5029332;28;39225;-76
2021/04/26 04:28:46;;;;;;;8.73;4.03;;;;;;;;;;5012346;28;38845;-76
2021/04/26 04:31:13;;;;;;;6.57;3.07;;;;;;;;;;5019909;28;36654;-76
2021/04/26 04:33:39;;;;;;;7.13;4.13;;;;;;;;;;5018234;28;39188;-76
2021/04/26 04:36:06;;;;;;;13.63;3.57;;;;;;;;;;5036151;28;39285;-75
2021/04/26 04:38:33;;;;;;;11.27;3.43;;;;;;;;;;5019301;28;38496;-75
2021/04/26 04:41:00;;;;;;;8.47;4.07;;;;;;;;;;5019070;28;36726;-76
2021/04/26 04:43:26;;;;;;;8.40;4.00;;;;;;;;;;5033645;28;39653;-75
2021/04/26 04:45:53;;;;;;;10.37;4.30;;;;;;;;;;5029884;28;39415;-76
2021/04/26 04:48:19;;;;;;;10.40;3.70;;;;;;;;;;5014228;28;37844;-76
2021/04/26 04:50:45;;;;;;;14.40;4.77;;;;;;;;;;5016593;28;38092;-76
2021/04/26 04:53:12;;;;;;;13.07;4.10;;;;;;;;;;5015650;28;41382;-76
2021/04/26 04:55:38;;;;;;;8.00;4.03;;;;;;;;;;5019282;28;38668;-76
2021/04/26 04:58:05;;;;;;;10.83;4.17;;;;;;;;;;5016376;28;40197;-76
2021/04/26 05:00:31;;;;;;;10.53;3.87;;;;;;;;;;5015470;28;36817;-76
2021/04/26 05:02:58;;;;;;;8.60;3.80;;;;;;;;;;5015969;28;40426;-76
2021/04/26 05:05:24;;;;;;;9.73;3.90;;;;;;;;;;5010417;28;39082;-75
2021/04/26 05:07:50;;;;;;;9.53;4.00;;;;;;;;;;5032990;28;38126;-77
2021/04/26 05:10:17;;;;;;;8.40;3.93;;;;;;;;;;5022292;28;36682;-76
2021/04/26 05:12:43;;;;;;;12.83;4.00;;;;;;;;;;5022866;28;38469;-76
2021/04/26 05:15:10;;;;;;;8.57;3.63;;;;;;;;;;5020747;28;39776;-76
2021/04/26 05:17:36;;;;;;;10.57;3.30;;;;;;;;;;5025558;28;38694;-76
2021/04/26 05:20:04;;;;;;;8.43;3.20;;;;;;;;;;5017279;28;37179;-76
2021/04/26 05:22:31;;;;;;;11.07;3.13;;;;;;;;;;5015267;28;39737;-76
2021/04/26 05:24:58;;;;;;;7.07;3.00;;;;;;;;;;5020549;28;40669;-76
2021/04/26 05:27:24;;;;;;;10.93;3.80;;;;;;;;;;5024424;28;40144;-76
2021/04/26 05:29:51;;;;;;;10.90;3.17;;;;;;;;;;5018550;28;36850;-76
2021/04/26 05:32:17;;;;;;;8.53;3.40;;;;;;;;;;5027990;28;39866;-76
2021/04/26 05:34:44;;;;;;;8.90;2.80;;;;;;;;;;5021665;28;37397;-76
2021/04/26 05:37:10;;;;;;;9.53;2.80;;;;;;;;;;5014816;28;39176;-76
2021/04/26 05:39:37;;;;;;;9.97;2.87;;;;;;;;;;5015535;28;37138;-76
2021/04/26 05:42:03;;;;;;;8.73;2.47;;;;;;;;;;5010182;28;39785;-76
2021/04/26 05:44:30;;;;;;;10.40;2.80;;;;;;;;;;5012869;28;39352;-76
2021/04/26 05:46:56;;;;;;;10.97;2.93;;;;;;;;;;5018188;28;38717;-76
2021/04/26 05:49:22;;;;;;;12.33;3.40;;;;;;;;;;5018656;28;37036;-76
2021/04/26 05:51:49;;;;;;;11.90;3.17;;;;;;;;;;5013342;28;38389;-77
2021/04/26 05:54:15;;;;;;;6.83;2.77;;;;;;;;;;5014328;28;39593;-77
2021/04/26 05:56:41;;;;;;;9.70;3.40;;;;;;;;;;5015112;28;36687;-77
2021/04/26 05:59:08;;;;;;;10.37;3.07;;;;;;;;;;5022091;28;34601;-76
2021/04/26 06:01:34;;;;;;;11.53;2.47;;;;;;;;;;5015058;28;39681;-76
2021/04/26 06:04:00;;;;;;;10.83;2.60;;;;;;;;;;5018274;28;40252;-76
2021/04/26 06:06:28;;;;;;;10.00;2.50;;;;;;;;;;5028181;28;40305;-76
2021/04/26 06:08:54;;;;;;;6.47;2.60;;;;;;;;;;5024998;28;37473;-76
2021/04/26 06:11:21;;;;;;;7.33;2.47;;;;;;;;;;5015216;28;38548;-76
2021/04/26 06:13:47;;;;;;;8.80;2.27;;;;;;;;;;5021303;28;39759;-76
2021/04/26 06:16:15;;;;;;;12.10;2.83;;;;;;;;;;5024560;28;38428;-76
2021/04/26 06:18:41;;;;;;;10.23;2.50;;;;;;;;;;5023885;28;37011;-76
2021/04/26 06:21:07;;;;;;;7.97;2.50;;;;;;;;;;5021322;28;39144;-76
2021/04/26 06:23:34;;;;;;;5.97;1.90;;;;;;;;;;5018763;28;39254;-77
2021/04/26 06:26:00;;;;;;;11.67;2.93;;;;;;;;;;5019428;28;39262;-76
2021/04/26 06:28:27;;;;;;;11.70;2.50;;;;;;;;;;5018553;28;37426;-76
2021/04/26 06:30:53;;;;;;;10.40;2.50;;;;;;;;;;5023359;28;40661;-76
2021/04/26 06:33:20;;;;;;;4.27;1.90;;;;;;;;;;5022082;28;39597;-76
2021/04/26 06:35:47;;;;;;;9.70;2.43;;;;;;;;;;5021373;28;38339;-77
2021/04/26 06:38:13;;;;;;;9.10;2.10;;;;;;;;;;5021396;28;37302;-77
2021/04/26 06:40:40;;;;;;;11.50;2.30;;;;;;;;;;5007508;28;39242;-77
2021/04/26 06:43:07;;;;;;;5.37;2.03;;;;;;;;;;5007678;28;37409;-77
2021/04/26 06:45:33;;;;;;;8.03;2.00;;;;;;;;;;5021959;28;38750;-77
2021/04/26 06:48:00;;;;;;;5.57;1.80;;;;;;;;;;5024263;28;37520;-77
2021/04/26 06:50:27;;;;;;;7.13;1.70;;;;;;;;;;5024192;28;39491;-76
2021/04/26 06:52:55;;;;;;;4.77;1.70;;;;;;;;;;5026743;28;40959;-77
2021/04/26 06:55:22;;;;;;;7.87;1.50;;;;;;;;;;5022816;28;38719;-77
2021/04/26 06:57:48;;;;;;;6.70;2.13;;;;;;;;;;5022618;28;36957;-76
2021/04/26 07:00:15;;;;;;;16.27;2.40;;;;;;;;;;5021873;28;38027;-76
2021/04/26 07:02:41;;;;;;;6.03;1.83;;;;;;;;;;5019216;28;40810;-76
2021/04/26 07:05:08;;;;;;;6.53;1.70;;;;;;;;;;5017156;28;38204;-75
2021/04/26 07:07:35;;;;;;;5.57;1.83;;;;;;;;;;5023939;28;37280;-76
2021/04/26 07:10:02;;;;;;;7.17;2.13;;;;;;;;;;5034031;28;39608;-77
2021/04/26 07:12:28;;;;;;;8.07;1.80;;;;;;;;;;5019790;28;50003;-75
2021/04/26 07:14:54;;;;;;;4.97;1.47;;;;;;;;;;5022812;28;39789;-76
2021/04/26 07:17:23;;;;;;;3.20;1.40;;;;;;;;;;5021884;28;38409;-76
2021/04/26 07:19:50;;;;;;;5.63;1.47;;;;;;;;;;5017251;28;40204;-76
2021/04/26 07:22:16;;;;;;;5.63;1.40;;;;;;;;;;5021002;28;38862;-76
2021/04/26 07:24:43;;;;;;;10.03;1.80;;;;;;;;;;5018438;28;40256;-76
2021/04/26 07:27:09;;;;;;;10.63;2.57;;;;;;;;;;5031707;28;36929;-76
2021/04/26 07:29:35;;;;;;;4.43;1.53;;;;;;;;;;5018499;28;39537;-76
2021/04/26 07:32:02;;;;;;;7.37;2.10;;;;;;;;;;5015549;28;39103;-77
2021/04/26 07:34:28;;;;;;;4.07;1.60;;;;;;;;;;5021506;28;39618;-76
2021/04/26 07:36:55;;;;;;;7.93;1.70;;;;;;;;;;5019561;28;38632;-76
2021/04/26 07:39:21;;;;;;;7.23;2.10;;;;;;;;;;5022649;28;39168;-77
2021/04/26 07:41:48;;;;;;;4.13;1.70;;;;;;;;;;5019943;28;40446;-76
2021/04/26 07:44:14;;;;;;;8.20;1.77;;;;;;;;;;5027307;28;38949;-76
2021/04/26 07:46:41;;;;;;;6.10;1.80;;;;;;;;;;5025380;28;37241;-76
2021/04/26 07:49:07;;;;;;;5.87;1.60;;;;;;;;;;5024850;28;40000;-76
2021/04/26 07:51:34;;;;;;;5.53;1.53;;;;;;;;;;5028904;28;39727;-77
2021/04/26 07:54:00;;;;;;;4.97;1.93;;;;;;;;;;5019876;28;38648;-77
2021/04/26 07:56:26;;;;;;;8.23;1.60;;;;;;;;;;5021795;28;38643;-78
2021/04/26 07:58:53;;;;;;;5.17;1.70;;;;;;;;;;5025770;28;38406;-78
2021/04/26 08:01:19;;;;;;;5.70;2.28;;;;;;;;;;5022964;28;37378;-79
2021/04/26 08:03:45;;;;;;;4.30;1.55;;;;;;;;;;5023939;28;38513;-78
2021/04/26 08:06:12;;;;;;;6.30;1.70;;;;;;;;;;5016788;28;37192;-78
2021/04/26 08:08:38;;;;;;;5.40;1.67;;;;;;;;;;5015810;28;38962;-78
2021/04/26 08:11:04;;;;;;;5.57;1.70;;;;;;;;;;5016703;28;39077;-78
2021/04/26 08:13:31;;;;;;;6.82;1.73;;;;;;;;;;5023449;28;38783;-78
2021/04/26 08:15:58;;;;;;;6.80;1.73;;;;;;;;;;5023730;28;37638;-78
2021/04/26 08:18:25;;;;;;;8.57;1.88;;;;;;;;;;5019745;28;39343;-78
2021/04/26 08:20:52;;;;;;;7.97;1.80;;;;;;;;;;5023706;28;38860;-79
2021/04/26 08:23:19;;;;;;;4.07;1.58;;;;;;;;;;5019682;28;39140;-77
2021/04/26 08:25:46;;;;;;;4.38;1.40;;;;;;;;;;5025790;28;36868;-78
2021/04/26 08:28:14;;;;;;;4.95;1.40;;;;;;;;;;5025049;28;40136;-78
2021/04/26 08:30:40;;;;;;;7.00;1.60;;;;;;;;;;5025867;28;40454;-77
2021/04/26 08:33:07;;;;;;;6.90;1.70;;;;;;;;;;5017555;28;39311;-78
2021/04/26 08:35:33;;;;;;;3.97;1.23;;;;;;;;;;5017527;28;38096;-78
2021/04/26 08:37:59;;;;;;;5.90;1.50;;;;;;;;;;5051245;28;38963;-78
2021/04/26 08:40:26;;;;;;;3.40;1.42;;;;;;;;;;5026358;28;40049;-78
2021/04/26 08:42:52;;;;;;;6.57;1.80;;;;;;;;;;5025030;28;38817;-78
2021/04/26 08:45:19;;;;;;;5.80;1.65;;;;;;;;;;5023104;28;37245;-78
2021/04/26 08:47:46;;;;;;;8.60;1.95;;;;;;;;;;5027075;28;37199;-77
2021/04/26 08:50:13;;;;;;;7.15;1.92;;;;;;;;;;5023735;28;39814;-78
2021/04/26 08:52:40;;;;;;;6.75;1.80;;;;;;;;;;5037184;28;39276;-78
2021/04/26 08:55:07;;;;;;;7.15;1.70;;;;;;;;;;5039238;28;35725;-78
2021/04/26 08:57:34;;;;;;;4.15;1.67;;;;;;;;;;5018164;28;38783;-78
2021/04/26 09:00:00;;;;;;;3.70;1.63;;;;;;;;;;5022273;28;40740;-77
2021/04/26 09:02:26;;;;;;;5.30;1.88;;;;;;;;;;5017471;28;38527;-78
2021/04/26 09:04:56;;;;;;;4.88;1.70;;;;;;;;;;5025888;28;37137;-78
2021/04/26 09:07:23;;;;;;;5.55;1.83;;;;;;;;;;5056130;28;40748;-78
2021/04/26 09:09:51;;;;;;;3.95;1.77;;;;;;;;;;5039368;28;39458;-78
2021/04/26 09:12:23;;;;;;;5.05;1.75;;;;;;;;;;5019496;28;38865;-78
2021/04/26 09:14:51;;;;;;;6.43;1.63;;;;;;;;;;5035642;28;37738;-78
2021/04/26 09:17:31;;;;;;;3.95;1.70;;;;;;;;;;5022453;28;39867;-78
2021/04/26 09:19:59;;;;;;;3.63;1.60;;;;;;;;;;5018312;28;39728;-77
2021/04/26 09:22:38;;;;;;;7.55;1.60;;;;;;;;;;5021371;28;38795;-77
2021/04/26 09:25:23;;;;;;;4.13;1.50;;;;;;;;;;5030542;28;37103;-78
2021/04/26 09:27:53;;;;;;;6.22;1.92;;;;;;;;;;5028232;28;39664;-79
2021/04/26 09:30:39;;;;;;;6.32;1.83;;;;;;;;;;5030314;28;38558;-80
2021/04/26 09:33:22;;;;;;;8.15;2.28;;;;;;;;;;5025361;28;39253;-78
2021/04/26 09:35:48;;;;;;;;;;;;;;;;;;5019882;28;38418;-79
2021/04/26 09:38:27;;;;;;;3.00;1.50;;;;;;;;;;5024704;28;40725;-78
2021/04/26 09:41:10;;;;;;;6.82;1.55;;;;;;;;;;5022024;28;38770;-79
2021/04/26 09:43:37;;;;;;;4.40;1.48;;;;;;;;;;5025244;28;47157;-78
2021/04/26 09:46:04;;;;;;;3.75;1.50;;;;;;;;;;5041951;28;38624;-79
2021/04/26 09:48:32;;;;;;;5.50;2.10;;;;;;;;;;5026183;28;39366;-80
2021/04/26 09:51:05;;;;;;;4.30;2.30;;;;;;;;;;5029474;28;39451;-79
2021/04/26 09:53:35;;;;;;;4.95;1.55;;;;;;;;;;5026091;28;48917;-78
2021/04/26 09:56:11;;;;;;;5.88;2.15;;;;;;;;;;5026493;28;36573;-78
2021/04/26 09:58:39;;;;;;;5.47;2.15;;;;;;;;;;5024251;28;48824;-78
2021/04/26 10:01:05;;;;;;;4.78;1.88;;;;;;;;;;5016955;28;39346;-79
2021/04/26 10:03:32;;;;;;;7.35;1.73;;;;;;;;;;5025133;28;39018;-79
2021/04/26 10:05:59;;;;;;;8.13;2.15;;;;;;;;;;5045354;28;38191;-80
2021/04/26 10:08:25;;;;;;;5.40;1.70;;;;;;;;;;5027656;28;39610;-80
2021/04/26 10:10:52;;;;;;;5.43;1.77;;;;;;;;;;5022906;28;40050;-79
2021/04/26 10:13:21;;;;;;;6.43;2.10;;;;;;;;;;5033972;28;37549;-78
2021/04/26 10:15:53;;;;;;;7.10;2.45;;;;;;;;;;5024751;28;37002;-77
2021/04/26 10:18:20;;;;;;;7.97;2.35;;;;;;;;;;5024772;28;40868;-78
2021/04/26 10:20:47;;;;;;;6.72;2.33;;;;;;;;;;5015781;28;38653;-78
2021/04/26 10:23:32;;;;;;;5.45;2.25;;;;;;;;;;5036770;28;40955;-77
2021/04/26 10:25:58;;;;;;;4.65;1.83;;;;;;;;;;5025602;28;36972;-78
2021/04/26 10:28:28;;;;;;;3.63;1.80;;;;;;;;;;5027627;28;37857;-78
2021/04/26 10:30:58;;;;;;;8.90;2.63;;;;;;;;;;5024861;28;39483;-78
2021/04/26 10:33:25;;;;;;;4.97;1.90;;;;;;;;;;5027364;28;37998;-78
2021/04/26 10:35:52;;;;;;;5.65;2.17;;;;;;;;;;5028884;28;37353;-78
2021/04/26 10:38:34;;;;;;;6.78;2.22;;;;;;;;;;5031472;28;40180;-76
2021/04/26 10:41:01;;;;;;;7.47;2.47;;;;;;;;;;5034323;28;39610;-77
2021/04/26 10:43:29;;;;;;;9.73;1.90;;;;;;;;;;5025620;28;46937;-77
2021/04/26 10:46:14;;;;;;;9.07;2.90;;;;;;;;;;5019881;28;38020;-77
2021/04/26 10:48:59;;;;;;;6.15;2.03;;;;;;;;;;5029743;28;48466;-77
2021/04/26 10:51:25;;;;;;;6.40;2.33;;;;;;;;;;5018530;28;39206;-77
2021/04/26 10:53:52;;;;;;;4.25;2.22;;;;;;;;;;5028715;28;38932;-77
2021/04/26 10:56:31;;;;;;;7.40;2.30;;;;;;;;;;5030701;28;37189;-77
2021/04/26 10:59:16;;;;;;;5.07;2.20;;;;;;;;;;5019082;28;39861;-79
2021/04/26 11:01:46;;;;;;;4.82;1.77;;;;;;;;;;5036462;28;46775;-78
2021/04/26 11:04:12;;;;;;;6.13;2.13;;;;;;;;;;5027107;28;38450;-78
2021/04/26 11:06:38;;;;;;;6.22;2.33;;;;;;;;;;5025838;28;38125;-78
2021/04/26 11:09:10;;;;;;;7.80;2.20;;;;;;;;;;5029796;28;40080;-78
2021/04/26 11:11:46;;;;;;;6.03;2.17;;;;;;;;;;5022438;28;38650;-78
2021/04/26 11:14:21;;;;;;;6.82;2.10;;;;;;;;;;5044411;28;37536;-78
2021/04/26 11:16:53;;;;;;;6.63;2.20;;;;;;;;;;5021078;28;36811;-78
2021/04/26 11:19:20;;;;;;;7.25;2.28;;;;;;;;;;5036499;28;38776;-78
2021/04/26 11:21:49;;;;;;;6.20;2.50;;;;;;;;;;5025492;28;38201;-78
2021/04/26 11:24:25;;;;;;;4.15;2.10;;;;;;;;;;5034548;28;39034;-76
2021/04/26 11:27:11;;;;;;;7.03;2.20;;;;;;;;;;5025013;28;36820;-77
2021/04/26 11:29:49;;;;;;;4.65;2.42;;;;;;;;;;5031059;28;48434;-77
2021/04/26 11:32:17;;;;;;;6.00;2.30;;;;;;;;;;5028716;28;39046;-76
2021/04/26 11:34:50;;;;;;;6.85;2.42;;;;;;;;;;5031394;28;38724;-77
2021/04/26 11:37:20;;;;;;;7.15;2.38;;;;;;;;;;5043952;28;36402;-77
2021/04/26 11:39:47;;;;;;;10.65;2.95;;;;;;;;;;5029405;28;37552;-77
2021/04/26 11:42:20;;;;;;;5.57;2.45;;;;;;;;;;5027296;28;38784;-77
2021/04/26 11:44:47;;;;;;;4.18;2.30;;;;;;;;;;5043008;28;38722;-77
2021/04/26 11:47:15;;;;;;;8.20;2.70;;;;;;;;;;5028190;28;37024;-77
2021/04/26 11:49:45;;;;;;;8.35;2.53;;;;;;;;;;5017586;28;37813;-78
2021/04/26 11:52:14;;;;;;;5.38;2.35;;;;;;;;;;5027275;28;39727;-77
2021/04/26 11:54:44;;;;;;;7.10;2.17;;;;;;;;;;5028956;28;38671;-77
2021/04/26 11:57:16;;;;;;;4.25;2.10;;;;;;;;;;5026680;28;36189;-76
2021/04/26 11:59:53;;;;;;;5.65;2.60;;;;;;;;;;5026102;28;38173;-77
2021/04/26 12:02:26;;;;;;;8.68;2.58;;;;;;;;;;5024001;28;38914;-77
2021/04/26 12:04:53;;;;;;;8.63;2.67;;;;;;;;;;5022427;28;39310;-77
2021/04/26 12:07:20;;;;;;;6.95;2.40;;;;;;;;;;5026222;28;36366;-77
2021/04/26 12:10:12;;;;;;;6.40;2.78;;;;;;;;;;5012582;28;37967;-77
2021/04/26 12:12:39;;;;;;;;;;;;;;;;;;5012093;28;47414;-77
2021/04/26 12:15:10;;;;;;;4.78;2.42;;;;;;;;;;5022273;28;38709;-77
2021/04/26 12:17:40;;;;;;;21.38;3.65;;;;;;;;;;5016983;28;35988;-78
2021/04/26 12:20:17;;;;;;;12.05;2.97;;;;;;;;;;5013929;28;41088;-78
2021/04/26 12:22:45;;;;;;;12.70;3.00;;;;;;;;;;5016467;28;38312;-78
2021/04/26 12:25:12;;;;;;;10.93;2.30;;;;;;;;;;5022627;28;38805;-77
2021/04/26 12:27:39;;;;;;;5.70;2.17;;;;;;;;;;5023598;28;35852;-76
2021/04/26 12:30:12;;;;;;;10.70;2.20;;;;;;;;;;5015212;28;38187;-76
2021/04/26 12:32:38;;;;;;;25.75;3.38;;;;;;;;;;5025446;28;37867;-76
2021/04/26 12:35:06;;;;;;;35.83;5.15;;;;;;;;;;5022555;28;39609;-76
2021/04/26 12:37:35;;;;;;;15.45;3.03;;;;;;;;;;5020867;28;37718;-77
2021/04/26 12:40:22;;;;;;;45.90;5.28;;;;;;;;;;5023305;28;38109;-76
2021/04/26 12:43:09;;;;;;;26.60;3.45;;;;;;;;;;5037275;28;47264;-76
2021/04/26 12:45:36;;;;;;;18.13;3.28;;;;;;;;;;5023937;28;48084;-77
2021/04/26 12:48:23;;;;;;;6.68;2.63;;;;;;;;;;5028071;28;37519;-77
2021/04/26 12:50:50;;;;;;;4.22;1.88;;;;;;;;;;5020973;28;37884;-77
2021/04/26 12:53:16;;;;;;;6.40;2.00;;;;;;;;;;5025727;28;38806;-78
2021/04/26 12:55:51;;;;;;;3.60;1.65;;;;;;;;;;5029946;28;38246;-77
2021/04/26 12:58:19;;;;;;;4.32;1.98;;;;;;;;;;5021514;28;37423;-77
2021/04/26 13:00:53;;;;;;;6.10;2.22;;;;;;;;;;5027812;28;39223;-77
2021/04/26 13:03:55;;;;;;;6.72;2.20;;;;;;;;;;5016360;28;40494;-77
2021/04/26 13:06:24;;;;;;;23.05;3.15;;;;;;;;;;4975984;28;37480;-77
2021/04/26 13:08:51;;;;;;;9.20;2.45;;;;;;;;;;5024103;28;37042;-77
2021/04/26 13:11:30;;;;;;;4.55;2.22;;;;;;;;;;5029898;28;40003;-77
2021/04/26 13:13:56;;;;;;;4.70;2.22;;;;;;;;;;5023511;28;38671;-78
2021/04/26 13:16:24;;;;;;;7.22;2.10;;;;;;;;;;5027033;28;38976;-76
2021/04/26 13:18:51;;;;;;;5.32;1.92;;;;;;;;;;5023898;28;38153;-77
2021/04/26 13:21:20;;;;;;;3.72;1.80;;;;;;;;;;5016892;28;38072;-78
2021/04/26 13:23:47;;;;;;;6.72;2.08;;;;;;;;;;5014530;28;39971;-77
2021/04/26 13:26:20;;;;;;;4.53;1.90;;;;;;;;;;5025034;28;37691;-77
2021/04/26 13:28:47;;;;;;;5.25;2.20;;;;;;;;;;5028833;28;37389;-78
2021/04/26 13:31:13;;;;;;;7.75;1.98;;;;;;;;;;5046994;28;39558;-77
2021/04/26 13:33:40;;;;;;;4.15;2.00;;;;;;;;;;5029488;28;39472;-78
2021/04/26 13:36:06;;;;;;;5.75;2.25;;;;;;;;;;5021737;28;38908;-78
2021/04/26 13:38:33;;;;;;;5.15;2.15;;;;;;;;;;5014073;28;34004;-77
2021/04/26 13:41:00;;;;;;;5.88;2.15;;;;;;;;;;5021991;28;39290;-79
2021/04/26 13:43:27;;;;;;;8.57;2.00;;;;;;;;;;5029238;28;39354;-78
2021/04/26 13:45:53;;;;;;;9.18;2.53;;;;;;;;;;5026580;28;39294;-78
2021/04/26 13:48:20;;;;;;;7.82;2.13;;;;;;;;;;5027797;28;37252;-77
2021/04/26 13:50:47;;;;;;;4.50;1.80;;;;;;;;;;5025832;28;37799;-78
2021/04/26 13:53:13;;;;;;;5.93;2.30;;;;;;;;;;5024745;28;38984;-78
2021/04/26 13:55:40;;;;;;;5.30;2.15;;;;;;;;;;5035947;28;38828;-78
2021/04/26 13:58:06;;;;;;;7.25;2.85;;;;;;;;;;5021494;28;38497;-78
2021/04/26 14:00:33;;;;;;;4.38;2.20;;;;;;;;;;5023136;28;39567;-79
2021/04/26 14:03:00;;;;;;;5.38;2.35;;;;;;;;;;5027165;28;37876;-78
2021/04/26 14:05:26;;;;;;;7.53;2.05;;;;;;;;;;5030100;28;38647;-78
2021/04/26 14:07:53;;;;;;;5.90;1.95;;;;;;;;;;5027689;28;37220;-80
2021/04/26 14:10:19;;;;;;;7.97;2.35;;;;;;;;;;5040258;28;37878;-78
2021/04/26 14:12:46;;;;;;;5.93;1.90;;;;;;;;;;5043253;28;38836;-79
2021/04/26 14:15:13;;;;;;;9.05;2.00;;;;;;;;;;5026115;28;38834;-78
2021/04/26 14:17:40;;;;;;;5.15;2.30;;;;;;;;;;5031544;28;35770;-81
2021/04/26 14:20:07;;;;;;;5.78;2.40;;;;;;;;;;5036900;28;38365;-77
2021/04/26 14:22:33;;;;;;;5.55;2.15;;;;;;;;;;5017140;28;38232;-78
2021/04/26 14:25:01;;;;;;;4.03;2.05;;;;;;;;;;5014967;28;37634;-78
2021/04/26 14:27:27;;;;;;;5.05;2.00;;;;;;;;;;5026286;28;47881;-79
2021/04/26 14:29:54;;;;;;;6.32;2.00;;;;;;;;;;5024859;28;37971;-82
2021/04/26 14:32:21;;;;;;;3.58;1.63;;;;;;;;;;5022211;28;39324;-78
2021/04/26 14:34:47;;;;;;;4.45;2.05;;;;;;;;;;5044655;28;38954;-77
2021/04/26 14:37:14;;;;;;;4.30;1.50;;;;;;;;;;5024755;28;36911;-78
2021/04/26 14:39:40;;;;;;;4.50;2.00;;;;;;;;;;5028490;28;38906;-79
2021/04/26 14:42:07;;;;;;;3.65;1.65;;;;;;;;;;5024966;28;39739;-79
2021/04/26 14:44:33;;;;;;;7.97;1.95;;;;;;;;;;5033137;28;38463;-79
2021/04/26 14:46:59;;;;;;;8.00;1.73;;;;;;;;;;5027079;28;37263;-78